createdAt,value
2018-11-21T00:00:32.411Z,0.30
2018-11-21T00:03:01.436Z,0.30
2018-11-21T00:05:32.105Z,0.30
2018-11-21T00:08:01.181Z,0.20
2018-11-21T00:10:29.945Z,0.30
2018-11-21T00:12:59.268Z,0.30
2018-11-21T00:15:28.070Z,0.30
2018-11-21T00:17:57.645Z,0.20
2018-11-21T00:20:27.080Z,0.20
2018-11-21T00:22:56.547Z,0.30
2018-11-21T00:25:25.305Z,0.30
2018-11-21T00:27:54.205Z,0.30
2018-11-21T00:30:22.979Z,0.30
2018-11-21T00:32:51.468Z,0.20
2018-11-21T00:35:19.951Z,0.20
2018-11-21T00:37:49.015Z,0.20
2018-11-21T00:40:17.859Z,0.30
2018-11-21T00:42:47.141Z,0.20
2018-11-21T00:45:16.415Z,0.20
2018-11-21T00:47:44.895Z,0.20
2018-11-21T00:50:14.281Z,0.20
2018-11-21T00:52:44.131Z,0.30
2018-11-21T00:55:13.017Z,0.20
2018-11-21T00:57:41.532Z,0.20
2018-11-21T01:00:11.661Z,0.20
2018-11-21T01:02:40.500Z,0.20
2018-11-21T01:05:08.963Z,0.20
2018-11-21T01:07:38.242Z,0.20
2018-11-21T01:10:07.146Z,0.10
2018-11-21T01:12:35.695Z,0.20
2018-11-21T01:15:04.977Z,0.10
2018-11-21T01:17:33.769Z,0.20
2018-11-21T01:20:02.317Z,0.10
2018-11-21T01:22:31.910Z,0.10
2018-11-21T01:25:00.722Z,0.10
2018-11-21T01:27:29.550Z,0.10
2018-11-21T01:29:58.323Z,0.20
2018-11-21T01:32:28.189Z,0.20
2018-11-21T01:34:57.514Z,0.20
2018-11-21T01:37:26.025Z,0.20
2018-11-21T01:39:54.947Z,0.20
2018-11-21T01:42:23.462Z,0.20
2018-11-21T01:44:52.033Z,0.20
2018-11-21T01:47:21.189Z,0.20
2018-11-21T01:49:49.692Z,0.20
2018-11-21T01:52:18.580Z,0.20
2018-11-21T01:54:47.479Z,0.20
2018-11-21T01:57:16.359Z,0.20
2018-11-21T01:59:47.805Z,0.20
2018-11-21T02:02:16.861Z,0.20
2018-11-21T02:04:45.667Z,0.20
2018-11-21T02:07:14.187Z,0.20
2018-11-21T02:09:43.025Z,0.20
2018-11-21T02:12:11.570Z,0.20
2018-11-21T02:14:41.148Z,0.20
2018-11-21T02:17:11.887Z,0.20
2018-11-21T02:19:40.751Z,0.10
2018-11-21T02:22:09.874Z,0.20
2018-11-21T02:24:38.884Z,0.20
2018-11-21T02:27:07.471Z,0.20
2018-11-21T02:29:35.962Z,0.20
2018-11-21T02:32:05.673Z,0.20
2018-11-21T02:34:34.477Z,0.20
2018-11-21T02:37:03.776Z,0.20
2018-11-21T02:39:33.021Z,0.20
2018-11-21T02:42:01.573Z,0.20
2018-11-21T02:44:30.463Z,0.20
2018-11-21T02:46:59.473Z,0.20
2018-11-21T02:49:28.641Z,0.20
2018-11-21T02:51:57.177Z,0.20
2018-11-21T02:54:26.143Z,0.20
2018-11-21T02:57:20.096Z,0.20
2018-11-21T02:59:49.526Z,0.20
2018-11-21T03:02:18.495Z,0.30
2018-11-21T03:04:47.593Z,0.20
2018-11-21T03:07:16.522Z,0.30
2018-11-21T03:09:45.050Z,0.20
2018-11-21T03:12:13.993Z,0.20
2018-11-21T03:14:42.884Z,0.20
2018-11-21T03:17:12.269Z,0.30
2018-11-21T03:19:41.125Z,0.20
2018-11-21T03:22:10.598Z,0.20
2018-11-21T03:24:39.491Z,0.20
2018-11-21T03:27:09.970Z,0.20
2018-11-21T03:29:39.846Z,0.30
2018-11-21T03:32:08.595Z,0.30
2018-11-21T03:34:37.456Z,0.30
2018-11-21T03:37:06.044Z,0.20
2018-11-21T03:39:34.963Z,0.20
2018-11-21T03:42:03.430Z,0.30
2018-11-21T03:44:32.833Z,0.20
2018-11-21T03:47:02.094Z,0.20
2018-11-21T03:49:31.095Z,0.30
2018-11-21T03:51:59.932Z,0.20
2018-11-21T03:54:28.422Z,0.20
2018-11-21T03:56:56.878Z,0.20
2018-11-21T03:59:25.451Z,0.30
2018-11-21T04:01:54.294Z,0.30
2018-11-21T04:04:23.137Z,0.30
2018-11-21T04:06:51.987Z,0.30
2018-11-21T04:09:21.169Z,0.30
2018-11-21T04:11:49.619Z,0.20
2018-11-21T04:14:19.045Z,0.20
2018-11-21T04:16:47.893Z,0.30
2018-11-21T04:19:17.131Z,0.30
2018-11-21T04:21:46.629Z,0.30
2018-11-21T04:24:16.160Z,0.30
2018-11-21T04:26:44.680Z,0.30
2018-11-21T04:29:15.286Z,0.30
2018-11-21T04:31:43.797Z,0.30
2018-11-21T04:34:13.110Z,0.30
2018-11-21T04:36:41.633Z,0.20
2018-11-21T04:39:11.081Z,0.30
2018-11-21T04:41:40.239Z,0.30
2018-11-21T04:44:09.193Z,0.20
2018-11-21T04:46:38.437Z,0.30
2018-11-21T04:49:07.694Z,0.30
2018-11-21T04:51:36.498Z,0.30
2018-11-21T04:54:06.223Z,0.30
2018-11-21T04:56:35.547Z,0.30
2018-11-21T04:59:04.014Z,0.30
2018-11-21T05:01:32.515Z,0.30
2018-11-21T05:04:01.059Z,0.30
2018-11-21T05:06:29.563Z,0.30
2018-11-21T05:08:58.650Z,0.30
2018-11-21T05:11:27.545Z,0.30
2018-11-21T05:13:58.868Z,0.40
2018-11-21T05:16:27.868Z,0.30
2018-11-21T05:18:56.400Z,0.40
2018-11-21T05:21:25.307Z,0.40
2018-11-21T05:23:53.904Z,0.30
2018-11-21T05:26:22.817Z,0.30
2018-11-21T05:28:51.817Z,0.30
2018-11-21T05:31:20.415Z,0.30
2018-11-21T05:33:49.919Z,0.30
2018-11-21T05:36:18.954Z,0.40
2018-11-21T05:38:47.471Z,0.40
2018-11-21T05:41:15.984Z,0.40
2018-11-21T05:43:45.254Z,0.40
2018-11-21T05:46:14.796Z,0.40
2018-11-21T05:48:43.343Z,0.40
2018-11-21T05:51:12.474Z,0.40
2018-11-21T05:53:40.929Z,0.40
2018-11-21T05:56:09.762Z,0.40
2018-11-21T05:58:38.695Z,0.40
2018-11-21T06:01:09.184Z,0.40
2018-11-21T06:03:37.747Z,0.50
2018-11-21T06:06:09.847Z,0.50
2018-11-21T06:08:35.095Z,0.50
2018-11-21T06:11:03.566Z,0.50
2018-11-21T06:13:32.843Z,0.50
2018-11-21T06:16:01.714Z,0.50
2018-11-21T06:18:31.329Z,0.50
2018-11-21T06:20:59.790Z,0.50
2018-11-21T06:23:29.443Z,0.50
2018-11-21T06:25:58.022Z,0.50
2018-11-21T06:28:26.917Z,0.50
2018-11-21T06:30:55.742Z,0.60
2018-11-21T06:33:24.983Z,0.50
2018-11-21T06:35:53.851Z,0.60
2018-11-21T06:38:23.298Z,0.60
2018-11-21T06:40:53.020Z,0.60
2018-11-21T06:43:21.971Z,0.60
2018-11-21T06:45:50.825Z,0.50
2018-11-21T06:48:20.004Z,0.60
2018-11-21T06:50:48.454Z,0.60
2018-11-21T06:53:16.904Z,0.60
2018-11-21T06:55:45.597Z,0.60
2018-11-21T06:58:17.684Z,0.60
2018-11-21T07:00:46.943Z,0.60
2018-11-21T07:03:15.479Z,0.60
2018-11-21T07:05:44.576Z,0.60
2018-11-21T07:08:13.070Z,0.60
2018-11-21T07:10:41.852Z,0.60
2018-11-21T07:13:11.214Z,0.60
2018-11-21T07:15:40.065Z,0.60
2018-11-21T07:18:08.939Z,0.60
2018-11-21T07:20:37.393Z,0.60
2018-11-21T07:23:07.761Z,0.60
2018-11-21T07:25:37.251Z,0.70
2018-11-21T07:28:12.701Z,0.70
2018-11-21T07:30:35.772Z,0.60
2018-11-21T07:33:05.168Z,0.60
2018-11-21T07:35:34.341Z,0.60
2018-11-21T07:38:03.448Z,0.60
2018-11-21T07:40:31.914Z,0.60
2018-11-21T07:43:00.722Z,0.60
2018-11-21T07:45:29.679Z,0.60
2018-11-21T07:47:58.582Z,0.60
2018-11-21T07:50:27.745Z,0.60
2018-11-21T07:52:56.935Z,0.60
2018-11-21T07:55:26.061Z,0.60
2018-11-21T07:57:56.308Z,0.60
2018-11-21T08:01:15.593Z,0.60
2018-11-21T08:04:04.093Z,0.50
2018-11-21T08:06:42.276Z,0.60
2018-11-21T08:09:31.176Z,0.50
2018-11-21T08:12:18.978Z,0.60
2018-11-21T08:15:19.221Z,0.60
2018-11-21T08:17:57.426Z,0.60
2018-11-21T08:20:44.328Z,0.60
2018-11-21T08:23:30.341Z,0.60
2018-11-21T08:26:18.367Z,0.60
2018-11-21T08:28:48.824Z,0.60
2018-11-21T08:31:17.796Z,0.50
2018-11-21T08:33:47.915Z,0.60
2018-11-21T08:36:16.763Z,0.60
2018-11-21T08:38:45.274Z,0.60
2018-11-21T08:41:14.155Z,0.60
2018-11-21T08:43:43.038Z,0.50
2018-11-21T08:46:12.004Z,0.60
2018-11-21T08:48:41.038Z,0.50
2018-11-21T08:51:10.246Z,0.50
2018-11-21T08:53:39.134Z,0.60
2018-11-21T08:56:08.316Z,0.60
2018-11-21T08:58:36.880Z,0.50
2018-11-21T09:01:05.679Z,0.60
2018-11-21T09:03:34.126Z,0.50
2018-11-21T09:06:04.492Z,0.50
2018-11-21T09:08:32.085Z,0.50
2018-11-21T09:11:00.867Z,0.40
2018-11-21T09:13:31.354Z,0.50
2018-11-21T09:16:00.732Z,0.50
2018-11-21T09:18:29.561Z,0.50
2018-11-21T09:20:58.432Z,0.50
2018-11-21T09:23:28.153Z,0.60
2018-11-21T09:25:57.483Z,0.60
2018-11-21T09:28:28.090Z,0.60
2018-11-21T09:30:56.829Z,0.60
2018-11-21T09:33:27.940Z,0.60
2018-11-21T09:35:57.490Z,0.60
2018-11-21T09:38:26.063Z,0.60
2018-11-21T09:40:55.035Z,0.60
2018-11-21T09:43:23.910Z,0.70
2018-11-21T09:45:54.732Z,0.60
2018-11-21T09:48:23.567Z,0.60
2018-11-21T09:50:52.115Z,0.60
2018-11-21T09:53:20.680Z,0.60
2018-11-21T09:55:49.752Z,0.60
2018-11-21T09:58:18.702Z,0.60
2018-11-21T10:01:23.943Z,0.70
2018-11-21T10:03:52.787Z,0.70
2018-11-21T10:06:23.709Z,0.60
2018-11-21T10:09:00.016Z,0.70
2018-11-21T10:11:30.521Z,0.70
2018-11-21T10:13:59.108Z,0.70
2018-11-21T10:16:27.569Z,0.70
2018-11-21T10:18:57.543Z,0.60
2018-11-21T10:21:27.480Z,0.60
2018-11-21T10:23:55.939Z,0.60
2018-11-21T10:26:24.896Z,0.60
2018-11-21T10:28:54.290Z,0.60
2018-11-21T10:31:23.213Z,0.60
2018-11-21T10:33:52.075Z,0.60
2018-11-21T10:36:21.323Z,0.60
2018-11-21T10:38:50.768Z,0.60
2018-11-21T10:41:20.194Z,0.50
2018-11-21T10:43:49.388Z,0.60
2018-11-21T10:46:18.212Z,0.60
2018-11-21T10:48:46.715Z,0.60
2018-11-21T10:51:15.900Z,0.60
2018-11-21T10:53:44.696Z,0.60
2018-11-21T10:56:13.948Z,0.70
2018-11-21T10:58:43.159Z,0.70
2018-11-21T11:01:33.787Z,0.70
2018-11-21T11:04:21.362Z,0.70
2018-11-21T11:07:18.048Z,0.70
2018-11-21T11:10:17.937Z,0.70
2018-11-21T11:13:12.258Z,0.70
2018-11-21T11:15:54.691Z,0.80
2018-11-21T11:18:58.043Z,0.80
2018-11-21T11:21:44.377Z,0.80
2018-11-21T11:24:32.273Z,0.80
2018-11-21T11:27:19.869Z,0.80
2018-11-21T11:30:10.633Z,0.80
2018-11-21T11:33:07.310Z,0.80
2018-11-21T11:36:07.286Z,0.80
2018-11-21T11:38:53.741Z,0.80
2018-11-21T11:41:40.305Z,0.80
2018-11-21T11:44:26.518Z,0.70
2018-11-21T11:47:13.194Z,0.80
2018-11-21T11:49:55.790Z,0.70
2018-11-21T11:52:55.633Z,0.70
2018-11-21T11:55:46.457Z,0.70
2018-11-21T11:58:24.262Z,0.70
2018-11-21T12:01:11.635Z,0.70
2018-11-21T12:04:08.990Z,0.70
2018-11-21T12:06:55.379Z,0.70
2018-11-21T12:09:37.695Z,0.70
2018-11-21T12:12:43.556Z,0.70
2018-11-21T12:15:43.589Z,0.80
2018-11-21T12:18:40.593Z,0.80
2018-11-21T12:21:43.653Z,0.80
2018-11-21T12:24:43.756Z,0.80
2018-11-21T12:27:30.312Z,0.80
2018-11-21T12:30:33.987Z,0.80
2018-11-21T12:33:27.921Z,0.80
2018-11-21T12:36:18.821Z,0.80
2018-11-21T12:39:05.653Z,0.80
2018-11-21T12:41:53.319Z,0.80
2018-11-21T12:44:46.949Z,0.80
2018-11-21T12:47:33.153Z,0.90
2018-11-21T12:50:19.768Z,0.80
2018-11-21T12:53:06.752Z,0.80
2018-11-21T12:55:51.620Z,0.80
2018-11-21T12:58:34.836Z,0.80
2018-11-21T13:01:21.556Z,0.90
2018-11-21T13:04:08.822Z,0.80
2018-11-21T13:06:49.526Z,0.80
2018-11-21T13:09:36.238Z,0.80
2018-11-21T13:12:26.978Z,0.80
2018-11-21T13:15:13.860Z,0.80
2018-11-21T13:18:13.580Z,0.80
2018-11-21T13:21:21.740Z,0.80
2018-11-21T13:24:06.547Z,0.80
2018-11-21T13:27:09.333Z,0.70
2018-11-21T13:30:09.659Z,0.80
2018-11-21T13:32:55.966Z,0.80
2018-11-21T13:35:41.119Z,0.70
2018-11-21T13:38:28.799Z,0.70
2018-11-21T13:41:15.445Z,0.70
2018-11-21T13:44:06.973Z,0.70
2018-11-21T13:46:56.275Z,0.70
2018-11-21T13:49:35.527Z,0.60
2018-11-21T13:52:21.767Z,0.60
2018-11-21T13:54:51.076Z,0.60
2018-11-21T13:57:21.019Z,0.60
2018-11-21T13:59:49.512Z,0.70
2018-11-21T14:02:18.328Z,0.60
2018-11-21T14:04:47.320Z,0.70
2018-11-21T14:07:15.857Z,0.70
2018-11-21T14:09:45.332Z,0.60
2018-11-21T14:12:13.872Z,0.60
2018-11-21T14:14:43.263Z,0.60
2018-11-21T14:17:13.757Z,0.60
2018-11-21T14:19:42.530Z,0.60
2018-11-21T14:22:11.277Z,0.70
2018-11-21T14:24:39.869Z,0.60
2018-11-21T14:27:09.089Z,0.60
2018-11-21T14:29:37.593Z,0.60
2018-11-21T14:32:06.415Z,0.60
2018-11-21T14:34:35.308Z,0.60
2018-11-21T14:37:05.650Z,0.60
2018-11-21T14:39:34.673Z,0.60
2018-11-21T14:42:08.580Z,0.60
2018-11-21T14:44:35.561Z,0.50
2018-11-21T14:47:05.497Z,0.50
2018-11-21T14:49:34.672Z,0.50
2018-11-21T14:52:03.896Z,0.50
2018-11-21T14:54:32.351Z,0.50
2018-11-21T14:57:00.837Z,0.50
2018-11-21T14:59:29.721Z,0.50
2018-11-21T15:01:58.999Z,0.50
2018-11-21T15:04:28.230Z,0.50
2018-11-21T15:06:56.674Z,0.50
2018-11-21T15:09:25.911Z,0.50
2018-11-21T15:11:54.897Z,0.50
2018-11-21T15:14:23.540Z,0.50
2018-11-21T15:16:52.024Z,0.50
2018-11-21T15:19:20.761Z,0.50
2018-11-21T15:21:50.112Z,0.50
2018-11-21T15:24:18.568Z,0.40
2018-11-21T15:26:47.569Z,0.40
2018-11-21T15:29:16.696Z,0.40
2018-11-21T15:31:45.292Z,0.40
2018-11-21T15:34:15.063Z,0.40
2018-11-21T15:36:44.250Z,0.40
2018-11-21T15:39:13.723Z,0.50
2018-11-21T15:41:42.240Z,0.40
2018-11-21T15:44:11.468Z,0.40
2018-11-21T15:46:45.721Z,0.40
2018-11-21T15:49:09.640Z,0.40
2018-11-21T15:51:39.270Z,0.40
2018-11-21T15:54:08.267Z,0.40
2018-11-21T15:56:38.073Z,0.40
2018-11-21T15:59:07.259Z,0.40
2018-11-21T16:01:35.778Z,0.40
2018-11-21T16:04:04.792Z,0.50
2018-11-21T16:06:33.425Z,0.40
2018-11-21T16:09:02.419Z,0.50
2018-11-21T16:11:31.918Z,0.50
2018-11-21T16:14:01.183Z,0.50
2018-11-21T16:16:30.155Z,0.50
2018-11-21T16:18:58.883Z,0.50
2018-11-21T16:21:27.701Z,0.50
2018-11-21T16:23:56.524Z,0.50
2018-11-21T16:26:25.918Z,0.50
2018-11-21T16:28:54.886Z,0.50
2018-11-21T16:31:23.427Z,0.50
2018-11-21T16:33:52.424Z,0.50
2018-11-21T16:36:27.143Z,0.50
2018-11-21T16:38:50.710Z,0.40
2018-11-21T16:41:19.670Z,0.40
2018-11-21T16:43:48.274Z,0.40
2018-11-21T16:46:20.042Z,0.40
2018-11-21T16:48:49.788Z,0.40
2018-11-21T16:51:19.924Z,0.30
2018-11-21T16:53:49.247Z,0.40
2018-11-21T16:56:17.947Z,0.40
2018-11-21T16:58:47.208Z,0.30
2018-11-21T17:01:15.768Z,0.30
2018-11-21T17:03:44.224Z,0.40
2018-11-21T17:06:13.178Z,0.30
2018-11-21T17:08:42.553Z,0.30
2018-11-21T17:11:11.930Z,0.40
2018-11-21T17:13:41.414Z,0.40
2018-11-21T17:16:10.459Z,0.40
2018-11-21T17:18:39.318Z,0.40
2018-11-21T17:21:08.405Z,0.40
2018-11-21T17:23:37.249Z,0.40
2018-11-21T17:26:06.500Z,0.50
2018-11-21T17:28:35.146Z,0.50
2018-11-21T17:31:04.128Z,0.50
2018-11-21T17:33:33.565Z,0.50
2018-11-21T17:36:02.452Z,0.50
2018-11-21T17:38:33.624Z,0.40
2018-11-21T17:41:00.592Z,0.40
2018-11-21T17:43:29.110Z,0.50
2018-11-21T17:46:03.968Z,0.50
2018-11-21T17:48:27.423Z,0.50
2018-11-21T17:50:56.051Z,0.50
2018-11-21T17:53:24.974Z,0.50
2018-11-21T17:55:54.319Z,0.50
2018-11-21T17:58:23.259Z,0.50
2018-11-21T18:00:51.960Z,0.50
2018-11-21T18:03:21.216Z,0.50
2018-11-21T18:05:50.055Z,0.50
2018-11-21T18:08:19.048Z,0.50
2018-11-21T18:10:47.705Z,0.40
2018-11-21T18:13:16.288Z,0.50
2018-11-21T18:15:45.689Z,0.50
2018-11-21T18:18:14.861Z,0.50
2018-11-21T18:20:43.524Z,0.50
2018-11-21T18:23:12.787Z,0.50
2018-11-21T18:25:43.465Z,0.50
2018-11-21T18:28:12.045Z,0.50
2018-11-21T18:30:40.683Z,0.50
2018-11-21T18:33:09.560Z,0.50
2018-11-21T18:35:38.220Z,0.50
2018-11-21T18:38:07.432Z,0.50
2018-11-21T18:40:36.524Z,0.50
2018-11-21T18:43:05.157Z,0.50
2018-11-21T18:45:38.932Z,0.50
2018-11-21T18:48:09.749Z,0.50
2018-11-21T18:50:38.826Z,0.40
2018-11-21T18:53:08.527Z,0.50
2018-11-21T18:55:43.406Z,0.50
2018-11-21T18:58:38.991Z,0.50
2018-11-21T19:01:08.453Z,0.50
2018-11-21T19:03:38.371Z,0.50
2018-11-21T19:06:07.796Z,0.50
2018-11-21T19:08:36.565Z,0.50
2018-11-21T19:11:05.464Z,0.50
2018-11-21T19:13:34.412Z,0.40
2018-11-21T19:16:04.303Z,0.40
2018-11-21T19:18:33.336Z,0.40
2018-11-21T19:21:01.950Z,0.40
2018-11-21T19:23:30.991Z,0.40
2018-11-21T19:25:59.852Z,0.40
2018-11-21T19:28:29.491Z,0.50
2018-11-21T19:30:58.427Z,0.40
2018-11-21T19:33:27.432Z,0.50
2018-11-21T19:35:56.168Z,0.40
2018-11-21T19:38:25.733Z,0.50
2018-11-21T19:40:54.843Z,0.50
2018-11-21T19:43:24.177Z,0.40
2018-11-21T19:45:53.351Z,0.50
2018-11-21T19:48:22.698Z,0.50
2018-11-21T19:50:51.499Z,0.50
2018-11-21T19:53:22.054Z,0.50
2018-11-21T19:55:50.842Z,0.50
2018-11-21T19:58:20.018Z,0.50
2018-11-21T20:00:49.629Z,0.50
2018-11-21T20:03:18.295Z,0.50
2018-11-21T20:05:47.772Z,0.40
2018-11-21T20:08:17.383Z,0.50
2018-11-21T20:10:46.518Z,0.50
2018-11-21T20:13:15.750Z,0.50
2018-11-21T20:15:44.525Z,0.50
2018-11-21T20:18:13.334Z,0.50
2018-11-21T20:20:42.241Z,0.50
2018-11-21T20:23:11.384Z,0.50
2018-11-21T20:25:40.275Z,0.50
2018-11-21T20:28:10.273Z,0.50
2018-11-21T20:30:40.179Z,0.50
2018-11-21T20:33:09.206Z,0.50
2018-11-21T20:35:38.331Z,0.50
2018-11-21T20:38:08.743Z,0.50
2018-11-21T20:40:38.172Z,0.50
2018-11-21T20:43:07.093Z,0.50
2018-11-21T20:45:35.927Z,0.60
2018-11-21T20:48:04.752Z,0.50
2018-11-21T20:50:34.073Z,0.50
2018-11-21T20:53:03.122Z,0.50
2018-11-21T20:55:33.059Z,0.50
2018-11-21T20:58:01.910Z,0.50
2018-11-21T21:00:33.466Z,0.50
2018-11-21T21:03:02.424Z,0.50
2018-11-21T21:05:31.223Z,0.50
2018-11-21T21:07:59.995Z,0.50
2018-11-21T21:10:30.726Z,0.50
2018-11-21T21:12:59.085Z,0.50
2018-11-21T21:15:27.543Z,0.50
2018-11-21T21:17:57.003Z,0.50
2018-11-21T21:20:27.481Z,0.50
2018-11-21T21:22:58.628Z,0.50
2018-11-21T21:25:29.135Z,0.50
2018-11-21T21:27:58.204Z,0.50
2018-11-21T21:30:29.360Z,0.50
2018-11-21T21:32:58.112Z,0.50
2018-11-21T21:35:27.988Z,0.50
2018-11-21T21:37:56.963Z,0.50
2018-11-21T21:40:28.229Z,0.50
2018-11-21T21:42:57.051Z,0.50
2018-11-21T21:45:27.714Z,0.50
2018-11-21T21:47:56.596Z,0.50
2018-11-21T21:50:27.041Z,0.50
2018-11-21T21:52:55.640Z,0.50
2018-11-21T21:55:26.179Z,0.50
2018-11-21T21:57:55.827Z,0.50
2018-11-21T22:00:26.938Z,0.50
2018-11-21T22:02:57.192Z,0.40
2018-11-21T22:05:26.767Z,0.40
2018-11-21T22:07:55.642Z,0.40
2018-11-21T22:10:24.461Z,0.40
2018-11-21T22:12:53.785Z,0.40
2018-11-21T22:15:26.846Z,0.40
2018-11-21T22:17:57.725Z,0.40
2018-11-21T22:20:26.612Z,0.40
2018-11-21T22:22:56.454Z,0.40
2018-11-21T22:25:26.116Z,0.40
2018-11-21T22:27:55.289Z,0.40
2018-11-21T22:30:24.917Z,0.50
2018-11-21T22:32:54.340Z,0.50
2018-11-21T22:35:25.174Z,0.50
2018-11-21T22:37:53.896Z,0.50
2018-11-21T22:40:22.970Z,0.50
2018-11-21T22:42:51.428Z,0.40
2018-11-21T22:45:21.247Z,0.50
2018-11-21T22:47:50.041Z,0.50
2018-11-21T22:50:19.893Z,0.50
2018-11-21T22:52:49.572Z,0.50
2018-11-21T22:55:18.480Z,0.50
2018-11-21T22:57:48.722Z,0.50
2018-11-21T23:00:39.244Z,0.50
2018-11-21T23:03:08.694Z,0.50
2018-11-21T23:05:37.782Z,0.50
2018-11-21T23:08:06.707Z,0.50
2018-11-21T23:10:35.287Z,0.50
2018-11-21T23:13:04.770Z,0.50
2018-11-21T23:15:33.580Z,0.50
2018-11-21T23:18:02.407Z,0.50
2018-11-21T23:20:31.843Z,0.40
2018-11-21T23:23:00.678Z,0.40
2018-11-21T23:25:29.965Z,0.40
2018-11-21T23:27:58.868Z,0.50
2018-11-21T23:30:27.741Z,0.40
2018-11-21T23:32:57.110Z,0.40
2018-11-21T23:35:25.682Z,0.40
2018-11-21T23:37:55.086Z,0.40
2018-11-21T23:40:23.685Z,0.40
2018-11-21T23:42:52.520Z,0.50
2018-11-21T23:45:21.399Z,0.50
2018-11-21T23:47:49.954Z,0.40
2018-11-21T23:50:19.165Z,0.40
2018-11-21T23:52:47.619Z,0.40
2018-11-21T23:55:18.480Z,0.40
2018-11-21T23:57:47.304Z,0.40
